THY981 LTAC-LTFJ
Flight info
| Callsign | THY981 |
|---|---|
| Flight time | 0h 52m |
| Altitude | 30000 |
| Route | PETAR UG8 TOKER |
| Aircraft | B738/M-SDE2E3FGHIRWXY/LB1 |
Departure
| Time | 2026-04-27 04:38 |
|---|---|
| Airport | Esenboğa International Airport (LTAC) |
Arrival
| Time | 2026-04-27 05:30 |
|---|---|
| Airport | Istanbul Sabiha Gökçen International Airport (LTFJ) |
| Time | Latitude | Longitude | Altitude | Speed | Heading |
|---|---|---|---|---|---|
| 2026-04-27 04:36 | 40.11955 | 32.98534 | 3112 ft | 0 kts | 32° |
| 2026-04-27 04:37 | 40.11973 | 32.98550 | 3112 ft | 15 kts | 34° |
| 2026-04-27 04:37 | 40.12275 | 32.98836 | 3116 ft | 90 kts | 36° |
| 2026-04-27 04:37 | 40.12965 | 32.99494 | 3123 ft | 153 kts | 36° |
| 2026-04-27 04:37 | 40.13963 | 33.00421 | 3356 ft | 192 kts | 35° |
| 2026-04-27 04:38 | 40.15078 | 33.01474 | 4096 ft | 206 kts | 36° |
| 2026-04-27 04:38 | 40.16217 | 33.02576 | 5043 ft | 197 kts | 36° |
| 2026-04-27 04:38 | 40.17312 | 33.03668 | 5869 ft | 206 kts | 36° |
| 2026-04-27 04:38 | 40.18529 | 33.04890 | 6234 ft | 230 kts | 36° |
| 2026-04-27 04:39 | 40.19805 | 33.06161 | 6952 ft | 236 kts | 35° |
| 2026-04-27 04:39 | 40.21132 | 33.07474 | 7676 ft | 241 kts | 35° |
| 2026-04-27 04:39 | 40.22491 | 33.08814 | 8363 ft | 248 kts | 35° |
| 2026-04-27 04:39 | 40.23899 | 33.10201 | 8977 ft | 261 kts | 36° |
| 2026-04-27 04:40 | 40.25535 | 33.11403 | 9458 ft | 277 kts | 13° |
| 2026-04-27 04:40 | 40.27447 | 33.11425 | 10283 ft | 283 kts | 345° |
| 2026-04-27 04:40 | 40.29273 | 33.10291 | 10810 ft | 305 kts | 322° |
| 2026-04-27 04:40 | 40.30708 | 33.08082 | 11033 ft | 335 kts | 299° |
| 2026-04-27 04:41 | 40.31481 | 33.05093 | 11384 ft | 359 kts | 278° |
| 2026-04-27 04:41 | 40.31397 | 33.01784 | 12153 ft | 369 kts | 258° |
| 2026-04-27 04:41 | 40.30790 | 32.99693 | 12759 ft | 374 kts | 242° |
| 2026-04-27 04:41 | 40.29298 | 32.96884 | 13749 ft | 376 kts | 235° |
| 2026-04-27 04:42 | 40.27712 | 32.94127 | 14518 ft | 381 kts | 236° |
| 2026-04-27 04:42 | 40.25699 | 32.90312 | 15484 ft | 386 kts | 239° |
| 2026-04-27 04:42 | 40.24713 | 32.88304 | 15982 ft | 389 kts | 239° |
| 2026-04-27 04:42 | 40.23285 | 32.85327 | 16727 ft | 392 kts | 240° |
| 2026-04-27 04:43 | 40.22008 | 32.82163 | 17406 ft | 395 kts | 253° |
| 2026-04-27 04:43 | 40.21544 | 32.78599 | 18079 ft | 396 kts | 266° |
| 2026-04-27 04:43 | 40.21340 | 32.75043 | 18717 ft | 399 kts | 267° |
| 2026-04-27 04:43 | 40.21143 | 32.71390 | 19246 ft | 405 kts | 267° |
| 2026-04-27 04:44 | 40.20940 | 32.67690 | 19811 ft | 408 kts | 267° |
| 2026-04-27 04:44 | 40.20727 | 32.63967 | 20399 ft | 411 kts | 267° |
| 2026-04-27 04:44 | 40.20502 | 32.60223 | 20957 ft | 414 kts | 267° |
| 2026-04-27 04:44 | 40.20270 | 32.56472 | 21481 ft | 418 kts | 266° |
| 2026-04-27 04:45 | 40.20029 | 32.52653 | 21998 ft | 421 kts | 266° |
| 2026-04-27 04:45 | 40.19786 | 32.48855 | 22499 ft | 425 kts | 266° |
| 2026-04-27 04:45 | 40.19536 | 32.44981 | 22998 ft | 428 kts | 266° |
| 2026-04-27 04:45 | 40.19283 | 32.41074 | 23475 ft | 431 kts | 266° |
| 2026-04-27 04:46 | 40.19028 | 32.37145 | 23904 ft | 434 kts | 266° |
| 2026-04-27 04:46 | 40.18770 | 32.33197 | 24288 ft | 436 kts | 266° |
| 2026-04-27 04:46 | 40.18512 | 32.29267 | 24675 ft | 439 kts | 266° |
| 2026-04-27 04:46 | 40.18249 | 32.25285 | 25070 ft | 441 kts | 266° |
| 2026-04-27 04:47 | 40.17983 | 32.21273 | 25462 ft | 443 kts | 266° |
| 2026-04-27 04:47 | 40.17715 | 32.17250 | 25846 ft | 445 kts | 266° |
| 2026-04-27 04:47 | 40.17444 | 32.13201 | 26211 ft | 447 kts | 266° |
| 2026-04-27 04:47 | 40.17176 | 32.09204 | 26558 ft | 449 kts | 266° |
| 2026-04-27 04:48 | 40.17115 | 32.05110 | 26875 ft | 450 kts | 275° |
| 2026-04-27 04:48 | 40.17436 | 32.01028 | 27199 ft | 451 kts | 278° |
| 2026-04-27 04:48 | 40.17859 | 31.96946 | 27606 ft | 451 kts | 278° |
| 2026-04-27 04:48 | 40.18230 | 31.92884 | 28112 ft | 449 kts | 277° |
| 2026-04-27 04:49 | 40.18541 | 31.88883 | 28637 ft | 446 kts | 276° |
| 2026-04-27 04:49 | 40.18886 | 31.84852 | 29103 ft | 444 kts | 278° |
| 2026-04-27 04:49 | 40.19329 | 31.80864 | 29510 ft | 444 kts | 279° |
| 2026-04-27 04:49 | 40.19821 | 31.76865 | 29925 ft | 443 kts | 280° |
| 2026-04-27 04:50 | 40.20323 | 31.72877 | 30127 ft | 447 kts | 280° |
| 2026-04-27 04:50 | 40.20829 | 31.68821 | 30128 ft | 455 kts | 280° |
| 2026-04-27 04:50 | 40.21836 | 31.60504 | 30136 ft | 468 kts | 279° |
| 2026-04-27 04:51 | 40.22830 | 31.52046 | 30135 ft | 475 kts | 279° |
| 2026-04-27 04:51 | 40.23815 | 31.43548 | 30102 ft | 459 kts | 279° |
| 2026-04-27 04:52 | 40.24280 | 31.39513 | 30114 ft | 447 kts | 279° |
| 2026-04-27 04:52 | 40.24742 | 31.35493 | 30126 ft | 443 kts | 279° |
| 2026-04-27 04:52 | 40.25658 | 31.27517 | 30142 ft | 442 kts | 279° |
| 2026-04-27 04:53 | 40.26562 | 31.19593 | 30137 ft | 441 kts | 279° |
| 2026-04-27 04:53 | 40.27452 | 31.11736 | 29676 ft | 427 kts | 279° |
| 2026-04-27 04:54 | 40.27882 | 31.07915 | 29225 ft | 422 kts | 279° |
| 2026-04-27 04:54 | 40.28308 | 31.04126 | 28816 ft | 416 kts | 279° |
| 2026-04-27 04:54 | 40.28722 | 31.00435 | 28376 ft | 412 kts | 279° |
| 2026-04-27 04:54 | 40.29137 | 30.96723 | 27924 ft | 409 kts | 279° |
| 2026-04-27 04:55 | 40.29546 | 30.93048 | 27484 ft | 405 kts | 280° |
| 2026-04-27 04:55 | 40.29952 | 30.89403 | 27081 ft | 401 kts | 280° |
| 2026-04-27 04:55 | 40.30347 | 30.85841 | 26641 ft | 398 kts | 280° |
| 2026-04-27 04:55 | 40.30744 | 30.82257 | 26217 ft | 396 kts | 280° |
| 2026-04-27 04:56 | 40.31135 | 30.78703 | 25907 ft | 390 kts | 279° |
| 2026-04-27 04:56 | 40.31519 | 30.75214 | 25588 ft | 385 kts | 280° |
| 2026-04-27 04:56 | 40.31902 | 30.71752 | 25185 ft | 383 kts | 280° |
| 2026-04-27 04:56 | 40.32285 | 30.68304 | 24785 ft | 381 kts | 280° |
| 2026-04-27 04:57 | 40.32664 | 30.64876 | 24378 ft | 379 kts | 280° |
| 2026-04-27 04:57 | 40.33042 | 30.61457 | 23972 ft | 378 kts | 279° |
| 2026-04-27 04:57 | 40.33413 | 30.58077 | 23532 ft | 377 kts | 279° |
| 2026-04-27 04:57 | 40.33785 | 30.54685 | 23079 ft | 375 kts | 279° |
| 2026-04-27 04:58 | 40.34156 | 30.51293 | 22655 ft | 373 kts | 279° |
| 2026-04-27 04:58 | 40.34522 | 30.47938 | 22249 ft | 371 kts | 279° |
| 2026-04-27 04:58 | 40.34876 | 30.44637 | 21858 ft | 368 kts | 278° |
| 2026-04-27 04:58 | 40.35007 | 30.41292 | 21453 ft | 367 kts | 271° |
| 2026-04-27 04:59 | 40.34913 | 30.37957 | 21063 ft | 365 kts | 268° |
| 2026-04-27 04:59 | 40.34762 | 30.34637 | 20672 ft | 363 kts | 268° |
| 2026-04-27 04:59 | 40.34615 | 30.31335 | 20277 ft | 362 kts | 269° |
| 2026-04-27 04:59 | 40.34484 | 30.28040 | 19897 ft | 360 kts | 269° |
| 2026-04-27 05:00 | 40.34371 | 30.24798 | 19509 ft | 359 kts | 269° |
| 2026-04-27 05:00 | 40.34267 | 30.21542 | 19139 ft | 357 kts | 269° |
| 2026-04-27 05:00 | 40.34168 | 30.18285 | 18754 ft | 356 kts | 269° |
| 2026-04-27 05:00 | 40.34071 | 30.15050 | 18368 ft | 354 kts | 270° |
| 2026-04-27 05:01 | 40.33975 | 30.11838 | 18109 ft | 347 kts | 270° |
| 2026-04-27 05:01 | 40.33880 | 30.08717 | 17946 ft | 339 kts | 270° |
| 2026-04-27 05:01 | 40.33786 | 30.05666 | 17783 ft | 330 kts | 270° |
| 2026-04-27 05:01 | 40.33694 | 30.02695 | 17650 ft | 322 kts | 270° |
| 2026-04-27 05:02 | 40.33459 | 29.99850 | 17454 ft | 318 kts | 255° |
| 2026-04-27 05:02 | 40.32564 | 29.97206 | 17221 ft | 315 kts | 245° |
| 2026-04-27 05:02 | 40.30579 | 29.92129 | 16574 ft | 313 kts | 245° |
| 2026-04-27 05:03 | 40.29597 | 29.89589 | 16250 ft | 312 kts | 245° |
| 2026-04-27 05:03 | 40.28626 | 29.87052 | 15949 ft | 310 kts | 245° |
| 2026-04-27 05:03 | 40.27664 | 29.84529 | 15641 ft | 309 kts | 245° |
| 2026-04-27 05:03 | 40.26707 | 29.82017 | 15336 ft | 307 kts | 245° |
| 2026-04-27 05:04 | 40.25781 | 29.79491 | 15030 ft | 305 kts | 253° |
| 2026-04-27 05:04 | 40.25489 | 29.76818 | 14729 ft | 298 kts | 274° |
| 2026-04-27 05:04 | 40.25599 | 29.74116 | 14439 ft | 297 kts | 276° |
| 2026-04-27 05:04 | 40.25734 | 29.71415 | 14142 ft | 296 kts | 276° |
| 2026-04-27 05:05 | 40.25866 | 29.68720 | 13829 ft | 295 kts | 275° |
| 2026-04-27 05:05 | 40.25986 | 29.66074 | 13502 ft | 294 kts | 275° |
| 2026-04-27 05:05 | 40.26100 | 29.63391 | 13190 ft | 293 kts | 275° |
| 2026-04-27 05:05 | 40.26209 | 29.60732 | 12891 ft | 291 kts | 275° |
| 2026-04-27 05:06 | 40.26315 | 29.58126 | 12603 ft | 289 kts | 275° |
| 2026-04-27 05:06 | 40.26689 | 29.55584 | 12302 ft | 282 kts | 298° |
| 2026-04-27 05:06 | 40.27807 | 29.53531 | 12062 ft | 275 kts | 317° |
| 2026-04-27 05:06 | 40.29279 | 29.51941 | 11780 ft | 272 kts | 324° |
| 2026-04-27 05:07 | 40.30817 | 29.50500 | 11500 ft | 271 kts | 325° |
| 2026-04-27 05:07 | 40.32350 | 29.49078 | 11213 ft | 269 kts | 325° |
| 2026-04-27 05:07 | 40.33865 | 29.47649 | 10929 ft | 267 kts | 324° |
| 2026-04-27 05:07 | 40.35360 | 29.46217 | 10663 ft | 265 kts | 324° |
| 2026-04-27 05:08 | 40.36829 | 29.44799 | 10409 ft | 264 kts | 324° |
| 2026-04-27 05:08 | 40.38284 | 29.43390 | 10310 ft | 257 kts | 324° |
| 2026-04-27 05:08 | 40.39639 | 29.41904 | 10139 ft | 254 kts | 310° |
| 2026-04-27 05:08 | 40.40390 | 29.39800 | 9871 ft | 256 kts | 286° |
| 2026-04-27 05:09 | 40.40576 | 29.37462 | 9597 ft | 258 kts | 273° |
| 2026-04-27 05:09 | 40.40539 | 29.35133 | 9332 ft | 258 kts | 271° |
| 2026-04-27 05:09 | 40.40477 | 29.32774 | 9061 ft | 258 kts | 271° |
| 2026-04-27 05:09 | 40.40428 | 29.30414 | 8788 ft | 258 kts | 272° |
| 2026-04-27 05:10 | 40.40391 | 29.28048 | 8516 ft | 258 kts | 272° |
| 2026-04-27 05:10 | 40.40359 | 29.25711 | 8376 ft | 253 kts | 272° |
| 2026-04-27 05:10 | 40.40330 | 29.23434 | 8247 ft | 252 kts | 273° |
| 2026-04-27 05:10 | 40.40528 | 29.21185 | 8181 ft | 244 kts | 297° |
| 2026-04-27 05:11 | 40.41353 | 29.19282 | 8212 ft | 240 kts | 305° |
| 2026-04-27 05:11 | 40.42229 | 29.17398 | 8218 ft | 243 kts | 305° |
| 2026-04-27 05:11 | 40.43107 | 29.15502 | 8193 ft | 242 kts | 305° |
| 2026-04-27 05:11 | 40.43974 | 29.13623 | 8187 ft | 239 kts | 305° |
| 2026-04-27 05:12 | 40.44550 | 29.11572 | 8184 ft | 244 kts | 279° |
| 2026-04-27 05:12 | 40.44526 | 29.09318 | 8200 ft | 255 kts | 268° |
| 2026-04-27 05:12 | 40.44337 | 29.06947 | 8207 ft | 259 kts | 267° |
| 2026-04-27 05:12 | 40.44140 | 29.04630 | 8189 ft | 257 kts | 267° |
| 2026-04-27 05:13 | 40.43952 | 29.02305 | 8186 ft | 255 kts | 269° |
| 2026-04-27 05:13 | 40.43773 | 28.99991 | 8179 ft | 253 kts | 268° |
| 2026-04-27 05:13 | 40.43847 | 28.97745 | 8193 ft | 245 kts | 287° |
| 2026-04-27 05:13 | 40.44241 | 28.95552 | 8209 ft | 250 kts | 286° |
| 2026-04-27 05:14 | 40.44610 | 28.93318 | 8207 ft | 249 kts | 287° |
| 2026-04-27 05:14 | 40.44960 | 28.91097 | 8193 ft | 246 kts | 287° |
| 2026-04-27 05:14 | 40.45297 | 28.88920 | 8182 ft | 248 kts | 285° |
| 2026-04-27 05:14 | 40.45657 | 28.86691 | 8198 ft | 251 kts | 290° |
| 2026-04-27 05:15 | 40.46381 | 28.84645 | 8206 ft | 246 kts | 303° |
| 2026-04-27 05:15 | 40.47247 | 28.82673 | 8211 ft | 249 kts | 302° |
| 2026-04-27 05:15 | 40.48086 | 28.80673 | 8204 ft | 249 kts | 302° |
| 2026-04-27 05:15 | 40.48905 | 28.78691 | 8192 ft | 244 kts | 302° |
| 2026-04-27 05:16 | 40.49693 | 28.76772 | 8190 ft | 239 kts | 303° |
| 2026-04-27 05:16 | 40.50537 | 28.74899 | 8195 ft | 237 kts | 313° |
| 2026-04-27 05:16 | 40.51701 | 28.73379 | 8217 ft | 238 kts | 319° |
| 2026-04-27 05:16 | 40.52911 | 28.71854 | 8216 ft | 242 kts | 317° |
| 2026-04-27 05:17 | 40.54133 | 28.70281 | 8214 ft | 248 kts | 317° |
| 2026-04-27 05:17 | 40.55364 | 28.68684 | 8202 ft | 248 kts | 317° |
| 2026-04-27 05:17 | 40.56577 | 28.67105 | 8214 ft | 242 kts | 318° |
| 2026-04-27 05:17 | 40.57846 | 28.65694 | 8199 ft | 234 kts | 332° |
| 2026-04-27 05:18 | 40.59262 | 28.64743 | 8205 ft | 232 kts | 334° |
| 2026-04-27 05:18 | 40.60710 | 28.63766 | 8220 ft | 236 kts | 333° |
| 2026-04-27 05:18 | 40.62199 | 28.62747 | 8231 ft | 243 kts | 334° |
| 2026-04-27 05:18 | 40.63800 | 28.62149 | 8194 ft | 240 kts | 0° |
| 2026-04-27 05:19 | 40.65431 | 28.62620 | 8193 ft | 246 kts | 24° |
| 2026-04-27 05:19 | 40.66818 | 28.63988 | 8001 ft | 255 kts | 46° |
| 2026-04-27 05:19 | 40.67697 | 28.66043 | 7811 ft | 260 kts | 65° |
| 2026-04-27 05:19 | 40.68295 | 28.68259 | 7594 ft | 259 kts | 68° |
| 2026-04-27 05:20 | 40.68864 | 28.70504 | 7376 ft | 256 kts | 68° |
| 2026-04-27 05:20 | 40.69432 | 28.72713 | 7175 ft | 254 kts | 67° |
| 2026-04-27 05:20 | 40.70009 | 28.74918 | 6986 ft | 253 kts | 68° |
| 2026-04-27 05:20 | 40.70582 | 28.77091 | 6799 ft | 253 kts | 68° |
| 2026-04-27 05:21 | 40.71160 | 28.79282 | 6588 ft | 253 kts | 68° |
| 2026-04-27 05:21 | 40.71742 | 28.81478 | 6396 ft | 252 kts | 68° |
| 2026-04-27 05:21 | 40.72322 | 28.83665 | 6195 ft | 252 kts | 69° |
| 2026-04-27 05:21 | 40.72891 | 28.85815 | 5998 ft | 249 kts | 68° |
| 2026-04-27 05:22 | 40.73458 | 28.87960 | 5797 ft | 245 kts | 68° |
| 2026-04-27 05:22 | 40.74015 | 28.90067 | 5581 ft | 242 kts | 68° |
| 2026-04-27 05:22 | 40.74610 | 28.92134 | 5364 ft | 238 kts | 64° |
| 2026-04-27 05:22 | 40.75256 | 28.94127 | 5148 ft | 235 kts | 63° |
| 2026-04-27 05:23 | 40.75921 | 28.96049 | 4922 ft | 232 kts | 63° |
| 2026-04-27 05:23 | 40.76604 | 28.97960 | 4691 ft | 228 kts | 63° |
| 2026-04-27 05:23 | 40.77278 | 28.99818 | 4473 ft | 220 kts | 64° |
| 2026-04-27 05:23 | 40.77935 | 29.01591 | 4323 ft | 210 kts | 62° |
| 2026-04-27 05:24 | 40.78616 | 29.03318 | 4111 ft | 214 kts | 63° |
| 2026-04-27 05:24 | 40.79274 | 29.05051 | 3936 ft | 207 kts | 64° |
| 2026-04-27 05:24 | 40.79891 | 29.06724 | 3704 ft | 197 kts | 65° |
| 2026-04-27 05:24 | 40.80470 | 29.08308 | 3522 ft | 185 kts | 65° |
| 2026-04-27 05:25 | 40.81006 | 29.09780 | 3364 ft | 174 kts | 65° |
| 2026-04-27 05:25 | 40.81514 | 29.11175 | 3260 ft | 161 kts | 66° |
| 2026-04-27 05:25 | 40.81990 | 29.12479 | 3226 ft | 157 kts | 66° |
| 2026-04-27 05:25 | 40.82467 | 29.13791 | 3033 ft | 158 kts | 65° |
| 2026-04-27 05:26 | 40.82941 | 29.15089 | 2839 ft | 156 kts | 65° |
| 2026-04-27 05:26 | 40.83402 | 29.16350 | 2618 ft | 152 kts | 65° |
| 2026-04-27 05:26 | 40.83851 | 29.17578 | 2409 ft | 144 kts | 65° |
| 2026-04-27 05:26 | 40.84271 | 29.18730 | 2213 ft | 136 kts | 65° |
| 2026-04-27 05:27 | 40.84684 | 29.19861 | 2069 ft | 135 kts | 64° |
| 2026-04-27 05:27 | 40.84993 | 29.20554 | 2110 ft | 131 kts | 52° |
| 2026-04-27 05:27 | 40.85797 | 29.21520 | 1989 ft | 112 kts | 43° |
| 2026-04-27 05:27 | 40.86348 | 29.22237 | 1679 ft | 112 kts | 52° |
| 2026-04-27 05:28 | 40.86833 | 29.23104 | 1567 ft | 124 kts | 57° |
| 2026-04-27 05:28 | 40.87149 | 29.23784 | 1610 ft | 136 kts | 58° |
| 2026-04-27 05:28 | 40.87757 | 29.25209 | 1390 ft | 134 kts | 61° |
| 2026-04-27 05:28 | 40.88181 | 29.26298 | 1032 ft | 131 kts | 64° |
| 2026-04-27 05:29 | 40.88439 | 29.27037 | 797 ft | 129 kts | 64° |
| 2026-04-27 05:29 | 40.88797 | 29.28056 | 533 ft | 119 kts | 64° |
| 2026-04-27 05:29 | 40.89163 | 29.29032 | 405 ft | 116 kts | 64° |
| 2026-04-27 05:29 | 40.89504 | 29.29960 | 320 ft | 107 kts | 64° |
| 2026-04-27 05:30 | 40.89715 | 29.30545 | 321 ft | 33 kts | 64° |
| 2026-04-27 05:30 | 40.89844 | 29.30899 | 319 ft | 33 kts | 64° |
| 2026-04-27 05:30 | 40.89912 | 29.31072 | 317 ft | 30 kts | 62° |
| 2026-04-27 05:30 | 40.90037 | 29.31270 | 318 ft | 27 kts | 35° |
| 2026-04-27 05:31 | 40.90172 | 29.31382 | 320 ft | 21 kts | 33° |
| 2026-04-27 05:31 | 40.90272 | 29.31473 | 319 ft | 13 kts | 33° |